createdAt,value
2022-11-17T00:00:40.554Z,0
2022-11-17T00:01:40.582Z,0
2022-11-17T00:02:40.640Z,0
2022-11-17T00:03:40.569Z,0
2022-11-17T00:04:40.568Z,0
2022-11-17T00:05:40.578Z,0
2022-11-17T00:06:40.583Z,0
2022-11-17T00:07:40.602Z,0
2022-11-17T00:08:40.560Z,0
2022-11-17T00:09:40.571Z,0
2022-11-17T00:10:40.565Z,0
2022-11-17T00:11:40.586Z,0
2022-11-17T00:12:40.573Z,0
2022-11-17T00:13:40.563Z,0
2022-11-17T00:14:40.574Z,0
2022-11-17T00:15:40.569Z,0
2022-11-17T00:16:40.583Z,0
2022-11-17T00:17:40.573Z,0
2022-11-17T00:18:40.576Z,0
2022-11-17T00:19:40.566Z,0
2022-11-17T00:20:40.570Z,0
2022-11-17T00:21:40.593Z,0
2022-11-17T00:22:40.570Z,0
2022-11-17T00:23:40.573Z,0
2022-11-17T00:24:40.564Z,0
2022-11-17T00:25:40.574Z,0
2022-11-17T00:26:40.580Z,0
2022-11-17T00:27:40.575Z,0
2022-11-17T00:28:40.554Z,0
2022-11-17T00:29:40.568Z,0
2022-11-17T00:30:43.796Z,0
2022-11-17T00:31:40.588Z,0
2022-11-17T00:32:40.566Z,0
2022-11-17T00:33:40.568Z,0
2022-11-17T00:34:40.569Z,0
2022-11-17T00:35:40.579Z,0
2022-11-17T00:36:40.625Z,0
2022-11-17T00:37:40.572Z,0
2022-11-17T00:38:40.575Z,0
2022-11-17T00:39:40.629Z,0
2022-11-17T00:40:40.577Z,0
2022-11-17T00:41:40.584Z,0
2022-11-17T00:42:40.562Z,0
2022-11-17T00:43:40.561Z,0
2022-11-17T00:44:40.552Z,0
2022-11-17T00:45:40.557Z,0
2022-11-17T00:46:40.575Z,0
2022-11-17T00:47:40.558Z,0
2022-11-17T00:48:40.559Z,0
2022-11-17T00:49:40.561Z,0
2022-11-17T00:50:40.563Z,0
2022-11-17T00:51:40.574Z,0
2022-11-17T00:52:40.563Z,0
2022-11-17T00:53:40.562Z,0
2022-11-17T00:54:40.576Z,0
2022-11-17T00:55:40.632Z,0
2022-11-17T00:56:40.576Z,0
2022-11-17T00:57:40.660Z,0
2022-11-17T00:58:40.556Z,0
2022-11-17T00:59:40.552Z,0
2022-11-17T01:00:40.557Z,0
2022-11-17T01:01:40.796Z,0
2022-11-17T01:02:40.563Z,0
2022-11-17T01:03:40.553Z,0
2022-11-17T01:04:40.562Z,0
2022-11-17T01:05:40.552Z,0
2022-11-17T01:06:40.573Z,0
2022-11-17T01:07:40.629Z,0
2022-11-17T01:08:40.557Z,0
2022-11-17T01:09:40.554Z,0
2022-11-17T01:10:40.567Z,0
2022-11-17T01:11:40.593Z,0
2022-11-17T01:12:40.567Z,0
2022-11-17T01:13:40.568Z,0
2022-11-17T01:14:40.589Z,0
2022-11-17T01:15:40.574Z,0
2022-11-17T01:16:40.583Z,0
2022-11-17T01:17:40.568Z,0
2022-11-17T01:18:40.570Z,0
2022-11-17T01:19:40.569Z,0
2022-11-17T01:20:40.570Z,0
2022-11-17T01:21:40.593Z,0
2022-11-17T01:22:40.574Z,0
2022-11-17T01:23:40.593Z,0
2022-11-17T01:24:40.571Z,0
2022-11-17T01:25:40.570Z,0
2022-11-17T01:26:40.593Z,0
2022-11-17T01:27:40.574Z,0
2022-11-17T01:28:40.574Z,0
2022-11-17T01:29:40.607Z,0
2022-11-17T01:30:40.552Z,0
2022-11-17T01:31:40.581Z,0
2022-11-17T01:32:40.573Z,0
2022-11-17T01:33:40.565Z,0
2022-11-17T01:34:40.563Z,0
2022-11-17T01:35:40.558Z,0
2022-11-17T01:36:40.585Z,0
2022-11-17T01:37:40.578Z,0
2022-11-17T01:38:40.571Z,0
2022-11-17T01:39:40.574Z,0
2022-11-17T01:40:40.571Z,0
2022-11-17T01:41:40.642Z,0
2022-11-17T01:42:40.567Z,0
2022-11-17T01:43:40.575Z,0
2022-11-17T01:44:40.575Z,0
2022-11-17T01:45:40.574Z,0
2022-11-17T01:46:40.600Z,0
2022-11-17T01:47:40.623Z,0
2022-11-17T01:48:40.577Z,0
2022-11-17T01:49:40.566Z,0
2022-11-17T01:50:40.571Z,0
2022-11-17T01:51:40.573Z,0
2022-11-17T01:52:40.553Z,0
2022-11-17T01:53:40.563Z,0
2022-11-17T01:54:40.581Z,0
2022-11-17T01:55:40.591Z,0
2022-11-17T01:56:40.585Z,0
2022-11-17T01:57:40.589Z,0
2022-11-17T01:58:40.567Z,0
2022-11-17T01:59:40.567Z,0
2022-11-17T02:00:40.554Z,0
2022-11-17T02:01:40.636Z,0
2022-11-17T02:02:40.581Z,0
2022-11-17T02:03:41.581Z,0
2022-11-17T02:04:40.566Z,0
2022-11-17T02:05:40.555Z,0
2022-11-17T02:06:40.570Z,0
2022-11-17T02:07:40.552Z,0
2022-11-17T02:08:40.556Z,0
2022-11-17T02:09:40.553Z,0
2022-11-17T02:10:40.555Z,0
2022-11-17T02:11:40.572Z,0
2022-11-17T02:12:40.574Z,0
2022-11-17T02:13:40.556Z,0
2022-11-17T02:14:40.557Z,0
2022-11-17T02:15:40.552Z,0
2022-11-17T02:16:40.574Z,0
2022-11-17T02:17:40.551Z,0
2022-11-17T02:18:40.561Z,0
2022-11-17T02:19:40.579Z,0
2022-11-17T02:20:40.557Z,0
2022-11-17T02:21:40.568Z,0
2022-11-17T02:22:40.582Z,0
2022-11-17T02:23:40.562Z,0
2022-11-17T02:24:40.568Z,0
2022-11-17T02:25:40.569Z,0
2022-11-17T02:26:40.589Z,0
2022-11-17T02:27:40.571Z,0
2022-11-17T02:28:40.571Z,0
2022-11-17T02:29:40.562Z,0
2022-11-17T02:30:40.558Z,0
2022-11-17T02:31:40.586Z,0
2022-11-17T02:32:40.568Z,0
2022-11-17T02:33:40.573Z,0
2022-11-17T02:34:40.653Z,0
2022-11-17T02:35:40.564Z,0
2022-11-17T02:36:40.584Z,0
2022-11-17T02:37:40.569Z,0
2022-11-17T02:38:40.567Z,0
2022-11-17T02:39:40.569Z,0
2022-11-17T02:40:40.558Z,0
2022-11-17T02:41:40.723Z,0
2022-11-17T02:42:40.564Z,0
2022-11-17T02:43:40.561Z,0
2022-11-17T02:44:40.578Z,0
2022-11-17T02:45:40.560Z,0
2022-11-17T02:46:40.579Z,0
2022-11-17T02:47:40.561Z,0
2022-11-17T02:48:40.567Z,0
2022-11-17T02:49:40.564Z,0
2022-11-17T02:50:40.573Z,0
2022-11-17T02:51:40.580Z,0
2022-11-17T02:52:40.576Z,0
2022-11-17T02:53:40.583Z,0
2022-11-17T02:54:40.585Z,0
2022-11-17T02:55:40.560Z,0
2022-11-17T02:56:40.590Z,0
2022-11-17T02:57:40.577Z,0
2022-11-17T02:58:40.549Z,0
2022-11-17T02:59:40.565Z,0
2022-11-17T03:00:40.549Z,0
2022-11-17T03:01:40.631Z,0
2022-11-17T03:02:40.564Z,0
2022-11-17T03:03:40.569Z,0
2022-11-17T03:04:40.564Z,0
2022-11-17T03:05:40.572Z,0
2022-11-17T03:06:40.608Z,0
2022-11-17T03:07:40.578Z,0
2022-11-17T03:08:40.565Z,0
2022-11-17T03:09:40.568Z,0
2022-11-17T03:10:40.567Z,0
2022-11-17T03:11:40.584Z,0
2022-11-17T03:12:40.567Z,0
2022-11-17T03:13:40.563Z,0
2022-11-17T03:14:40.562Z,0
2022-11-17T03:15:40.550Z,0
2022-11-17T03:16:40.578Z,0
2022-11-17T03:17:40.548Z,0
2022-11-17T03:18:40.557Z,0
2022-11-17T03:19:40.560Z,0
2022-11-17T03:20:40.558Z,0
2022-11-17T03:21:40.568Z,0
2022-11-17T03:22:40.553Z,0
2022-11-17T03:23:40.552Z,0
2022-11-17T03:24:40.552Z,0
2022-11-17T03:25:40.551Z,0
2022-11-17T03:26:40.567Z,0
2022-11-17T03:27:40.560Z,0
2022-11-17T03:28:40.555Z,0
2022-11-17T03:29:40.561Z,0
2022-11-17T03:30:40.549Z,0
2022-11-17T03:31:40.587Z,0
2022-11-17T03:32:40.549Z,0
2022-11-17T03:33:40.554Z,0
2022-11-17T03:34:40.547Z,0
2022-11-17T03:35:40.551Z,0
2022-11-17T03:36:40.565Z,0
2022-11-17T03:37:40.562Z,0
2022-11-17T03:38:40.562Z,0
2022-11-17T03:39:40.566Z,0
2022-11-17T03:40:40.565Z,0
2022-11-17T03:41:40.571Z,0
2022-11-17T03:42:40.571Z,0
2022-11-17T03:43:40.561Z,0
2022-11-17T03:44:40.571Z,0
2022-11-17T03:45:40.564Z,0
2022-11-17T03:46:40.592Z,0
2022-11-17T03:47:40.569Z,0
2022-11-17T03:48:40.574Z,0
2022-11-17T03:49:40.563Z,0
2022-11-17T03:50:40.572Z,0
2022-11-17T03:51:40.577Z,0
2022-11-17T03:52:40.562Z,0
2022-11-17T03:53:40.552Z,0
2022-11-17T03:54:40.559Z,0
2022-11-17T03:55:40.623Z,0
2022-11-17T03:56:40.563Z,0
2022-11-17T03:57:40.556Z,0
2022-11-17T03:58:40.566Z,0
2022-11-17T03:59:40.568Z,0
2022-11-17T04:00:40.553Z,0
2022-11-17T04:01:40.655Z,0
2022-11-17T04:02:40.557Z,0
2022-11-17T04:03:40.562Z,0
2022-11-17T04:04:40.561Z,0
2022-11-17T04:05:40.567Z,0
2022-11-17T04:06:40.575Z,0
2022-11-17T04:07:40.560Z,0
2022-11-17T04:08:40.546Z,0
2022-11-17T04:09:40.571Z,0
2022-11-17T04:10:40.568Z,0
2022-11-17T04:11:40.642Z,0
2022-11-17T04:12:40.560Z,0
2022-11-17T04:13:40.562Z,0
2022-11-17T04:14:40.555Z,0
2022-11-17T04:15:40.568Z,0
2022-11-17T04:16:40.580Z,0
2022-11-17T04:17:40.560Z,0
2022-11-17T04:18:40.569Z,0
2022-11-17T04:19:40.567Z,0
2022-11-17T04:20:40.550Z,0
2022-11-17T04:21:40.574Z,0
2022-11-17T04:22:40.572Z,0
2022-11-17T04:23:40.564Z,0
2022-11-17T04:24:40.571Z,0
2022-11-17T04:25:40.578Z,0
2022-11-17T04:26:40.584Z,0
2022-11-17T04:27:40.561Z,0
2022-11-17T04:28:40.546Z,0
2022-11-17T04:29:40.560Z,0
2022-11-17T04:30:40.546Z,0
2022-11-17T04:31:40.575Z,0
2022-11-17T04:32:40.571Z,0
2022-11-17T04:33:40.551Z,0
2022-11-17T04:34:40.552Z,0
2022-11-17T04:35:40.559Z,0
2022-11-17T04:36:40.577Z,0
2022-11-17T04:37:40.567Z,0
2022-11-17T04:38:40.588Z,0
2022-11-17T04:39:40.553Z,0
2022-11-17T04:40:40.552Z,0
2022-11-17T04:41:40.624Z,0
2022-11-17T04:42:40.552Z,0
2022-11-17T04:43:40.565Z,0
2022-11-17T04:44:40.552Z,0
2022-11-17T04:45:40.550Z,0
2022-11-17T04:46:40.579Z,0
2022-11-17T04:47:40.554Z,0
2022-11-17T04:48:40.556Z,0
2022-11-17T04:49:40.548Z,0
2022-11-17T04:50:40.552Z,0
2022-11-17T04:51:40.573Z,0
2022-11-17T04:52:40.561Z,0
2022-11-17T04:53:40.572Z,0
2022-11-17T04:54:40.567Z,0
2022-11-17T04:55:40.572Z,0
2022-11-17T04:56:40.579Z,0
2022-11-17T04:57:40.566Z,0
2022-11-17T04:58:40.564Z,0
2022-11-17T04:59:40.566Z,0
2022-11-17T05:00:40.557Z,0
2022-11-17T05:01:40.666Z,0
2022-11-17T05:02:40.601Z,0
2022-11-17T05:03:40.571Z,0
2022-11-17T05:04:40.569Z,0
2022-11-17T05:05:40.563Z,0
2022-11-17T05:06:40.586Z,0
2022-11-17T05:07:40.615Z,0
2022-11-17T05:08:40.570Z,0
2022-11-17T05:09:40.583Z,0
2022-11-17T05:10:40.606Z,0
2022-11-17T05:11:40.574Z,0
2022-11-17T05:12:40.570Z,0
2022-11-17T05:13:40.566Z,0
2022-11-17T05:14:40.554Z,0
2022-11-17T05:15:40.624Z,0
2022-11-17T05:16:40.587Z,0
2022-11-17T05:17:40.569Z,0
2022-11-17T05:18:40.602Z,0
2022-11-17T05:19:40.566Z,0
2022-11-17T05:20:40.549Z,0
2022-11-17T05:21:40.581Z,0
2022-11-17T05:22:40.590Z,0
2022-11-17T05:23:40.562Z,0
2022-11-17T05:24:40.570Z,0
2022-11-17T05:25:40.560Z,0
2022-11-17T05:26:40.581Z,0
2022-11-17T05:27:40.562Z,0
2022-11-17T05:28:40.567Z,0
2022-11-17T05:29:40.552Z,0
2022-11-17T05:30:40.568Z,0
2022-11-17T05:31:40.590Z,0
2022-11-17T05:32:40.564Z,0
2022-11-17T05:33:40.849Z,0
2022-11-17T05:34:40.567Z,0
2022-11-17T05:35:40.571Z,0
2022-11-17T05:36:40.593Z,0
2022-11-17T05:37:40.574Z,0
2022-11-17T05:38:40.571Z,0
2022-11-17T05:39:40.566Z,0
2022-11-17T05:40:40.549Z,0
2022-11-17T05:41:40.584Z,0
2022-11-17T05:42:40.569Z,0
2022-11-17T05:43:40.575Z,0
2022-11-17T05:44:40.554Z,0
2022-11-17T05:45:40.554Z,0
2022-11-17T05:46:40.613Z,0
2022-11-17T05:47:40.574Z,0
2022-11-17T05:48:40.604Z,0
2022-11-17T05:49:40.557Z,0
2022-11-17T05:50:40.566Z,0
2022-11-17T05:51:40.569Z,0
2022-11-17T05:52:40.550Z,0
2022-11-17T05:53:40.560Z,0
2022-11-17T05:54:40.549Z,0
2022-11-17T05:55:40.574Z,0
2022-11-17T05:56:40.569Z,0
2022-11-17T05:57:40.566Z,0
2022-11-17T05:58:40.563Z,0
2022-11-17T05:59:40.557Z,1
2022-11-17T06:00:40.559Z,1
2022-11-17T06:01:40.567Z,1
2022-11-17T06:02:40.554Z,3
2022-11-17T06:03:40.557Z,3
2022-11-17T06:04:40.606Z,5
2022-11-17T06:05:40.562Z,7
2022-11-17T06:06:40.586Z,7
2022-11-17T06:07:40.605Z,9
2022-11-17T06:08:40.698Z,9
2022-11-17T06:09:40.562Z,9
2022-11-17T06:10:41.061Z,12
2022-11-17T06:11:40.576Z,16
2022-11-17T06:12:40.574Z,18
2022-11-17T06:13:40.567Z,20
2022-11-17T06:14:40.571Z,23
2022-11-17T06:15:40.564Z,25
2022-11-17T06:16:40.584Z,29
2022-11-17T06:17:40.566Z,33
2022-11-17T06:18:40.574Z,36
2022-11-17T06:19:40.564Z,40
2022-11-17T06:20:40.550Z,42
2022-11-17T06:22:09.817Z,46
2022-11-17T06:22:45.408Z,47
2022-11-17T06:23:40.554Z,51
2022-11-17T06:24:40.572Z,53
2022-11-17T06:25:40.568Z,57
2022-11-17T06:26:40.587Z,58
2022-11-17T06:27:40.569Z,60
2022-11-17T06:28:40.571Z,64
2022-11-17T06:29:44.243Z,68
2022-11-17T06:30:40.553Z,73
2022-11-17T06:31:40.577Z,81
2022-11-17T06:32:40.575Z,88
2022-11-17T06:33:40.561Z,97
2022-11-17T06:34:40.568Z,108
2022-11-17T06:35:40.557Z,119
2022-11-17T06:36:40.574Z,141
2022-11-17T06:37:40.574Z,167
2022-11-17T06:38:40.563Z,186
2022-11-17T06:39:40.568Z,197
2022-11-17T06:40:40.552Z,221
2022-11-17T06:41:40.735Z,230
2022-11-17T06:42:40.570Z,235
2022-11-17T06:43:40.553Z,237
2022-11-17T06:44:40.568Z,241
2022-11-17T06:45:40.571Z,252
2022-11-17T06:46:44.812Z,269
2022-11-17T06:47:40.571Z,289
2022-11-17T06:48:40.572Z,309
2022-11-17T06:49:40.574Z,324
2022-11-17T06:50:40.557Z,340
2022-11-17T06:51:44.980Z,363
2022-11-17T06:52:40.563Z,383
2022-11-17T06:53:40.581Z,407
2022-11-17T06:54:40.564Z,431
2022-11-17T06:55:40.552Z,449
2022-11-17T06:56:40.628Z,458
2022-11-17T06:57:40.563Z,453
2022-11-17T06:58:40.554Z,444
2022-11-17T06:59:40.561Z,433
2022-11-17T07:00:40.670Z,429
2022-11-17T07:01:40.588Z,451
2022-11-17T07:02:40.549Z,466
2022-11-17T07:03:40.554Z,501
2022-11-17T07:04:40.564Z,534
2022-11-17T07:05:40.646Z,575
2022-11-17T07:06:40.597Z,602
2022-11-17T07:07:40.642Z,615
2022-11-17T07:08:40.554Z,630
2022-11-17T07:09:40.555Z,630
2022-11-17T07:10:44.956Z,693
2022-11-17T07:11:40.580Z,731
2022-11-17T07:12:40.574Z,750
2022-11-17T07:13:40.553Z,752
2022-11-17T07:14:40.550Z,770
2022-11-17T07:15:40.554Z,796
2022-11-17T07:16:40.570Z,799
2022-11-17T07:17:40.559Z,783
2022-11-17T07:18:40.551Z,746
2022-11-17T07:19:40.560Z,742
2022-11-17T07:20:40.555Z,752
2022-11-17T07:21:40.593Z,748
2022-11-17T07:22:40.563Z,746
2022-11-17T07:23:40.573Z,750
2022-11-17T07:24:40.569Z,740
2022-11-17T07:25:40.561Z,737
2022-11-17T07:26:40.592Z,775
2022-11-17T07:27:40.567Z,844
2022-11-17T07:28:40.569Z,905
2022-11-17T07:29:40.560Z,954
2022-11-17T07:30:40.558Z,986
2022-11-17T07:31:40.598Z,1000
2022-11-17T07:32:40.573Z,1026
2022-11-17T07:33:40.568Z,1067
2022-11-17T07:34:40.569Z,1087
2022-11-17T07:35:40.562Z,1094
2022-11-17T07:36:40.584Z,1100
2022-11-17T07:37:40.564Z,1105
2022-11-17T07:38:40.873Z,1137
2022-11-17T07:39:40.578Z,1187
2022-11-17T07:40:40.598Z,1231
2022-11-17T07:41:40.593Z,1269
2022-11-17T07:42:40.561Z,1258
2022-11-17T07:43:40.561Z,1246
2022-11-17T07:44:40.549Z,1223
2022-11-17T07:45:40.560Z,1152
2022-11-17T07:46:40.578Z,1050
2022-11-17T07:47:40.574Z,1041
2022-11-17T07:48:40.564Z,1048
2022-11-17T07:49:40.577Z,1096
2022-11-17T07:50:40.549Z,1153
2022-11-17T07:51:40.578Z,1168
2022-11-17T07:52:41.604Z,1091
2022-11-17T07:53:40.560Z,1028
2022-11-17T07:54:40.578Z,1041
2022-11-17T07:55:40.569Z,1096
2022-11-17T07:56:40.564Z,1085
2022-11-17T07:57:40.565Z,1113
2022-11-17T07:58:40.648Z,1122
2022-11-17T07:59:40.560Z,1131
2022-11-17T08:00:40.626Z,1124
2022-11-17T08:01:40.585Z,1153
2022-11-17T08:02:40.563Z,1247
2022-11-17T08:03:40.650Z,1343
2022-11-17T08:04:40.562Z,1472
2022-11-17T08:05:43.596Z,1529
2022-11-17T08:06:40.578Z,1568
2022-11-17T08:07:40.621Z,1622
2022-11-17T08:08:40.808Z,1684
2022-11-17T08:09:40.555Z,1684
2022-11-17T08:10:40.548Z,1704
2022-11-17T08:11:40.566Z,1585
2022-11-17T08:12:40.560Z,1470
2022-11-17T08:13:40.556Z,1443
2022-11-17T08:14:40.557Z,1426
2022-11-17T08:15:40.555Z,1446
2022-11-17T08:16:40.569Z,1522
2022-11-17T08:17:40.557Z,1605
2022-11-17T08:18:40.815Z,1598
2022-11-17T08:19:40.553Z,1531
2022-11-17T08:20:40.554Z,1480
2022-11-17T08:21:40.583Z,1424
2022-11-17T08:22:40.550Z,1387
2022-11-17T08:23:40.559Z,1389
2022-11-17T08:24:40.550Z,1422
2022-11-17T08:25:40.558Z,1463
2022-11-17T08:26:40.575Z,1539
2022-11-17T08:27:40.549Z,1614
2022-11-17T08:28:40.687Z,1651
2022-11-17T08:29:40.548Z,1738
2022-11-17T08:30:40.558Z,1835
2022-11-17T08:31:40.573Z,1848
2022-11-17T08:32:40.551Z,1874
2022-11-17T08:33:40.569Z,1813
2022-11-17T08:34:40.566Z,1763
2022-11-17T08:35:40.567Z,1754
2022-11-17T08:36:40.573Z,1756
2022-11-17T08:37:40.576Z,1776
2022-11-17T08:38:40.627Z,1791
2022-11-17T08:39:40.637Z,1758
2022-11-17T08:40:40.555Z,1679
2022-11-17T08:41:40.590Z,1603
2022-11-17T08:42:40.563Z,1548
2022-11-17T08:43:40.562Z,1509
2022-11-17T08:44:40.570Z,1505
2022-11-17T08:45:40.565Z,1528
2022-11-17T08:46:40.580Z,1561
2022-11-17T08:47:40.567Z,1618
2022-11-17T08:48:40.691Z,1625
2022-11-17T08:49:40.567Z,1623
2022-11-17T08:50:40.554Z,1609
2022-11-17T08:51:40.572Z,1555
2022-11-17T08:52:40.570Z,1498
2022-11-17T08:53:40.560Z,1459
2022-11-17T08:54:40.563Z,1448
2022-11-17T08:55:41.261Z,1502
2022-11-17T08:56:40.641Z,1585
2022-11-17T08:57:40.563Z,1703
2022-11-17T08:58:40.599Z,1822
2022-11-17T08:59:40.572Z,1933
2022-11-17T09:00:40.712Z,2044
2022-11-17T09:01:40.651Z,2138
2022-11-17T09:02:40.571Z,2112
2022-11-17T09:03:40.568Z,2123
2022-11-17T09:04:40.566Z,2069
2022-11-17T09:05:40.581Z,2010
2022-11-17T09:06:40.562Z,1975
2022-11-17T09:07:40.600Z,2020
2022-11-17T09:08:46.651Z,2119
2022-11-17T09:09:40.683Z,2119
2022-11-17T09:10:40.551Z,2309
2022-11-17T09:11:40.580Z,2383
2022-11-17T09:12:40.567Z,2300
2022-11-17T09:13:40.562Z,2210
2022-11-17T09:14:40.576Z,2186
2022-11-17T09:15:40.562Z,2093
2022-11-17T09:16:40.587Z,2068
2022-11-17T09:17:40.573Z,2029
2022-11-17T09:18:41.128Z,2023
2022-11-17T09:19:40.572Z,2092
2022-11-17T09:20:45.482Z,2156
2022-11-17T09:21:40.568Z,2128
2022-11-17T09:22:40.556Z,2092
2022-11-17T09:23:40.621Z,2077
2022-11-17T09:24:40.550Z,2068
2022-11-17T09:25:40.554Z,2176
2022-11-17T09:26:40.570Z,2267
2022-11-17T09:27:40.555Z,2296
2022-11-17T09:28:40.679Z,2399
2022-11-17T09:29:40.554Z,2261
2022-11-17T09:30:40.560Z,2174
2022-11-17T09:31:40.596Z,2313
2022-11-17T09:32:40.551Z,2445
2022-11-17T09:33:40.559Z,2523
2022-11-17T09:34:40.608Z,2685
2022-11-17T09:35:40.556Z,2727
2022-11-17T09:36:40.610Z,2718
2022-11-17T09:37:40.556Z,2665
2022-11-17T09:38:40.774Z,2622
2022-11-17T09:39:40.557Z,2563
2022-11-17T09:40:40.549Z,2574
2022-11-17T09:41:40.580Z,2584
2022-11-17T09:42:40.559Z,2619
2022-11-17T09:43:40.549Z,2680
2022-11-17T09:44:40.552Z,2711
2022-11-17T09:45:40.553Z,2715
2022-11-17T09:46:40.576Z,2650
2022-11-17T09:47:40.555Z,2600
2022-11-17T09:48:41.582Z,2613
2022-11-17T09:49:40.566Z,2633
2022-11-17T09:50:40.556Z,2571
2022-11-17T09:51:40.580Z,2580
2022-11-17T09:52:40.574Z,2608
2022-11-17T09:53:40.561Z,2602
2022-11-17T09:54:40.575Z,2652
2022-11-17T09:55:40.570Z,2727
2022-11-17T09:56:40.579Z,2759
2022-11-17T09:57:40.566Z,2827
2022-11-17T09:58:40.676Z,2779
2022-11-17T09:59:40.573Z,2755
2022-11-17T10:00:40.558Z,2761
2022-11-17T10:01:40.663Z,2715
2022-11-17T10:02:40.557Z,2615
2022-11-17T10:03:45.581Z,2514
2022-11-17T10:04:40.559Z,2458
2022-11-17T10:05:40.574Z,2407
2022-11-17T10:06:40.579Z,2340
2022-11-17T10:07:40.563Z,2388
2022-11-17T10:08:40.558Z,2414
2022-11-17T10:09:40.575Z,2414
2022-11-17T10:10:40.553Z,2394
2022-11-17T10:11:40.590Z,2324
2022-11-17T10:12:40.565Z,2261
2022-11-17T10:13:40.549Z,2246
2022-11-17T10:14:40.572Z,2200
2022-11-17T10:15:40.567Z,2149
2022-11-17T10:16:40.579Z,2038
2022-11-17T10:17:40.572Z,1955
2022-11-17T10:18:40.565Z,1874
2022-11-17T10:19:40.573Z,1863
2022-11-17T10:20:40.554Z,1821
2022-11-17T10:21:40.573Z,1854
2022-11-17T10:22:40.575Z,1904
2022-11-17T10:23:46.159Z,1915
2022-11-17T10:24:40.568Z,1876
2022-11-17T10:25:40.568Z,1786
2022-11-17T10:26:40.582Z,1786
2022-11-17T10:27:40.566Z,1784
2022-11-17T10:28:40.565Z,1776
2022-11-17T10:29:40.567Z,1791
2022-11-17T10:30:40.555Z,1784
2022-11-17T10:31:40.580Z,1810
2022-11-17T10:32:45.355Z,1811
2022-11-17T10:33:40.626Z,1817
2022-11-17T10:34:41.559Z,1830
2022-11-17T10:35:40.562Z,1898
2022-11-17T10:36:40.617Z,1968
2022-11-17T10:37:40.571Z,2044
2022-11-17T10:38:40.560Z,2110
2022-11-17T10:39:40.644Z,2121
2022-11-17T10:40:40.554Z,2001
2022-11-17T10:41:40.577Z,1885
2022-11-17T10:42:41.577Z,1786
2022-11-17T10:43:40.561Z,1736
2022-11-17T10:44:40.556Z,1752
2022-11-17T10:45:40.558Z,1787
2022-11-17T10:46:46.289Z,1826
2022-11-17T10:47:40.570Z,1869
2022-11-17T10:48:40.551Z,1880
2022-11-17T10:49:40.575Z,1898
2022-11-17T10:50:40.552Z,1848
2022-11-17T10:51:40.568Z,1708
2022-11-17T10:52:40.582Z,1588
2022-11-17T10:53:45.758Z,1492
2022-11-17T10:54:40.556Z,1457
2022-11-17T10:55:40.558Z,1398
2022-11-17T10:56:40.568Z,1386
2022-11-17T10:57:40.558Z,1373
2022-11-17T10:58:40.556Z,1389
2022-11-17T10:59:40.551Z,1457
2022-11-17T11:00:40.728Z,1457
2022-11-17T11:01:40.623Z,1450
2022-11-17T11:02:40.550Z,1410
2022-11-17T11:03:40.558Z,1384
2022-11-17T11:04:40.556Z,1426
2022-11-17T11:05:40.570Z,1487
2022-11-17T11:06:40.572Z,1483
2022-11-17T11:07:40.610Z,1428
2022-11-17T11:08:40.556Z,1417
2022-11-17T11:09:40.568Z,1417
2022-11-17T11:10:40.561Z,1422
2022-11-17T11:11:40.601Z,1448
2022-11-17T11:12:40.580Z,1417
2022-11-17T11:13:40.570Z,1375
2022-11-17T11:14:40.594Z,1319
2022-11-17T11:15:40.567Z,1279
2022-11-17T11:16:46.566Z,1297
2022-11-17T11:17:40.573Z,1360
2022-11-17T11:18:40.569Z,1428
2022-11-17T11:19:40.573Z,1476
2022-11-17T11:20:40.558Z,1614
2022-11-17T11:21:40.586Z,1675
2022-11-17T11:22:40.567Z,1695
2022-11-17T11:23:40.690Z,1741
2022-11-17T11:24:40.566Z,1843
2022-11-17T11:25:40.568Z,1837
2022-11-17T11:26:40.569Z,1891
2022-11-17T11:27:40.601Z,1867
2022-11-17T11:28:45.752Z,1889
2022-11-17T11:29:40.563Z,1881
2022-11-17T11:30:40.565Z,1784
2022-11-17T11:31:40.579Z,1675
2022-11-17T11:32:40.564Z,1596
2022-11-17T11:33:40.587Z,1513
2022-11-17T11:34:40.567Z,1561
2022-11-17T11:35:40.576Z,1664
2022-11-17T11:36:40.583Z,1846
2022-11-17T11:37:40.561Z,1780
2022-11-17T11:38:40.667Z,1797
2022-11-17T11:39:40.559Z,1920
2022-11-17T11:40:40.556Z,2034
2022-11-17T11:41:40.588Z,1998
2022-11-17T11:42:40.566Z,2189
2022-11-17T11:43:40.674Z,2278
2022-11-17T11:44:40.562Z,2117
2022-11-17T11:45:40.576Z,1940
2022-11-17T11:46:40.584Z,1883
2022-11-17T11:47:40.578Z,1937
2022-11-17T11:48:40.645Z,1896
2022-11-17T11:49:40.565Z,2036
2022-11-17T11:50:41.815Z,2007
2022-11-17T11:51:40.566Z,2023
2022-11-17T11:52:40.575Z,2034
2022-11-17T11:53:40.557Z,2060
2022-11-17T11:54:40.621Z,2187
2022-11-17T11:55:40.557Z,2128
2022-11-17T11:56:40.605Z,2171
2022-11-17T11:57:40.601Z,2169
2022-11-17T11:58:40.636Z,1950
2022-11-17T11:59:40.586Z,2025
2022-11-17T12:00:40.584Z,1972
2022-11-17T12:01:40.571Z,1861
2022-11-17T12:02:40.936Z,1789
2022-11-17T12:03:40.697Z,1811
2022-11-17T12:04:40.548Z,1841
2022-11-17T12:05:40.565Z,1913
2022-11-17T12:06:40.578Z,1979
2022-11-17T12:07:40.621Z,1983
2022-11-17T12:08:40.551Z,1856
2022-11-17T12:09:40.878Z,1856
2022-11-17T12:10:40.554Z,1775
2022-11-17T12:11:40.568Z,1688
2022-11-17T12:12:40.551Z,1638
2022-11-17T12:13:47.289Z,1537
2022-11-17T12:14:40.636Z,1518
2022-11-17T12:15:40.554Z,1467
2022-11-17T12:16:40.657Z,1579
2022-11-17T12:17:40.563Z,1743
2022-11-17T12:18:40.549Z,1889
2022-11-17T12:19:40.555Z,2084
2022-11-17T12:20:40.547Z,2160
2022-11-17T12:21:40.575Z,2086
2022-11-17T12:22:40.574Z,2093
2022-11-17T12:23:40.548Z,2044
2022-11-17T12:24:40.649Z,1904
2022-11-17T12:25:40.647Z,1819
2022-11-17T12:26:40.587Z,1704
2022-11-17T12:27:40.564Z,1638
2022-11-17T12:28:40.567Z,1655
2022-11-17T12:29:40.563Z,1697
2022-11-17T12:30:40.549Z,1616
2022-11-17T12:31:40.583Z,1596
2022-11-17T12:32:40.572Z,1435
2022-11-17T12:33:40.564Z,1275
2022-11-17T12:34:40.568Z,1321
2022-11-17T12:35:40.572Z,1395
2022-11-17T12:36:40.594Z,1487
2022-11-17T12:37:40.561Z,1417
2022-11-17T12:38:40.574Z,1430
2022-11-17T12:39:40.565Z,1382
2022-11-17T12:40:40.554Z,1386
2022-11-17T12:41:40.598Z,1378
2022-11-17T12:42:40.563Z,1419
2022-11-17T12:43:40.586Z,1437
2022-11-17T12:44:40.565Z,1397
2022-11-17T12:45:41.828Z,1376
2022-11-17T12:46:40.577Z,1295
2022-11-17T12:47:40.657Z,1306
2022-11-17T12:48:40.790Z,1380
2022-11-17T12:49:40.573Z,1448
2022-11-17T12:50:40.549Z,1483
2022-11-17T12:51:40.582Z,1485
2022-11-17T12:52:40.561Z,1513
2022-11-17T12:53:40.560Z,1610
2022-11-17T12:54:40.576Z,1620
2022-11-17T12:55:40.567Z,1723
2022-11-17T12:56:40.585Z,1734
2022-11-17T12:57:40.562Z,1751
2022-11-17T12:58:40.562Z,1699
2022-11-17T12:59:40.594Z,1489
2022-11-17T13:00:40.556Z,1371
2022-11-17T13:01:40.630Z,1345
2022-11-17T13:02:40.558Z,1323
2022-11-17T13:03:40.554Z,1271
2022-11-17T13:04:43.825Z,1284
2022-11-17T13:05:40.567Z,1210
2022-11-17T13:06:40.586Z,1233
2022-11-17T13:07:40.675Z,1198
2022-11-17T13:08:40.560Z,1207
2022-11-17T13:09:40.625Z,1207
2022-11-17T13:10:40.639Z,1246
2022-11-17T13:11:40.567Z,1231
2022-11-17T13:12:40.552Z,1218
2022-11-17T13:13:45.575Z,1223
2022-11-17T13:14:40.570Z,1179
2022-11-17T13:15:40.554Z,1153
2022-11-17T13:16:40.571Z,1058
2022-11-17T13:17:40.549Z,1109
2022-11-17T13:18:40.559Z,1150
2022-11-17T13:19:40.550Z,1111
2022-11-17T13:20:40.639Z,1144
2022-11-17T13:21:40.566Z,1022
2022-11-17T13:22:41.947Z,962
2022-11-17T13:23:40.553Z,816
2022-11-17T13:24:40.551Z,694
2022-11-17T13:25:40.555Z,600
2022-11-17T13:26:40.562Z,506
2022-11-17T13:27:40.554Z,464
2022-11-17T13:28:40.563Z,440
2022-11-17T13:29:40.562Z,414
2022-11-17T13:30:40.556Z,361
2022-11-17T13:31:40.570Z,320
2022-11-17T13:32:40.548Z,304
2022-11-17T13:33:40.662Z,311
2022-11-17T13:34:40.549Z,311
2022-11-17T13:35:40.561Z,311
2022-11-17T13:36:40.585Z,302
2022-11-17T13:37:40.560Z,300
2022-11-17T13:38:40.563Z,318
2022-11-17T13:39:40.572Z,317
2022-11-17T13:40:40.560Z,309
2022-11-17T13:41:40.632Z,302
2022-11-17T13:42:40.590Z,313
2022-11-17T13:43:40.580Z,318
2022-11-17T13:44:40.570Z,320
2022-11-17T13:45:40.565Z,339
2022-11-17T13:46:40.645Z,370
2022-11-17T13:47:40.573Z,418
2022-11-17T13:48:40.562Z,427
2022-11-17T13:49:40.562Z,455
2022-11-17T13:50:40.555Z,460
2022-11-17T13:51:40.628Z,460
2022-11-17T13:52:46.533Z,422
2022-11-17T13:53:40.569Z,427
2022-11-17T13:54:40.571Z,420
2022-11-17T13:56:37.233Z,392
2022-11-17T13:57:36.017Z,385
2022-11-17T13:58:35.959Z,353
2022-11-17T13:59:36.038Z,340
2022-11-17T14:00:35.963Z,344
2022-11-17T14:01:36.039Z,342